Letzte 24h
Datum & Zeit Temp. Luft-
feuchte
Wind Nieder-
schlag
Luftdruck Tendenz
IN OUT IN OUT Richtung Min. Max.
2020.02.21 10:58 7.1 °C 6.4 °C 66% 51% WNW 301 ° 14 km/h 40 km/h 0.0 mm 1025.80 hPa schnell steigend
11:58 7.1 °C 7.3 °C 63% 51% WNW 282 ° 19 km/h 37 km/h 0.0 mm 1026.70 hPa schnell steigend
12:58 7.5 °C 6.6 °C 62% 45% WSW 253 ° 25 km/h 45 km/h 0.3 mm 1027.10 hPa steigend
13:58 7.6 °C 6.4 °C 60% 40% W 271 ° 16 km/h 31 km/h 0.0 mm 1027.20 hPa langsam steigend
14:58 7.6 °C 6.2 °C 61% 46% WSW 249 ° 15 km/h 32 km/h 0.0 mm 1027.30 hPa langsam steigend
15:58 7.6 °C 6.5 °C 59% 44% WNW 301 ° 14 km/h 24 km/h 0.0 mm 1027.50 hPa langsam steigend
16:58 7.5 °C 6.4 °C 59% 41% WNW 296 ° 13 km/h 31 km/h 0.0 mm 1028.00 hPa langsam steigend
17:58 7.1 °C 6.1 °C 59% 43% W 275 ° 8 km/h 21 km/h 0.0 mm 1028.80 hPa langsam steigend
18:58 7.1 °C 6.0 °C 59% 43% W 275 ° 9 km/h 22 km/h 0.0 mm 1029.50 hPa steigend
19:58 7.0 °C 6.1 °C 58% 43% W 280 ° 14 km/h 27 km/h 0.0 mm 1029.50 hPa langsam steigend
20:58 6.8 °C 5.7 °C 59% 45% WNW 284 ° 12 km/h 22 km/h 0.0 mm 1029.30 hPa langsam steigend
21:58 6.6 °C 5.7 °C 59% 45% WNW 283 ° 13 km/h 24 km/h 0.0 mm 1029.60 hPa langsam steigend
22:58 6.3 °C 4.8 °C 60% 50% W 260 ° 4 km/h 13 km/h 0.0 mm 1029.60 hPa langsam steigend
23:58 6.1 °C 3.3 °C 60% 57% SSW 194 ° 6 km/h 16 km/h 0.0 mm 1030.00 hPa langsam steigend
2020.02.22 00:58 5.9 °C 3.8 °C 61% 55% SSW 193 ° 7 km/h 13 km/h 0.0 mm 1030.00 hPa langsam steigend
01:58 5.7 °C 3.9 °C 61% 53% SSW 213 ° 6 km/h 15 km/h 0.0 mm 1030.00 hPa langsam steigend
02:58 5.6 °C 3.2 °C 61% 59% S 187 ° 3 km/h 10 km/h 0.0 mm 1029.90 hPa gleichbleibend
03:58 5.6 °C 4.6 °C 61% 52% SSW 205 ° 9 km/h 17 km/h 0.0 mm 1029.40 hPa langsam fallend
04:58 5.7 °C 4.5 °C 61% 52% SSW 198 ° 9 km/h 17 km/h 0.0 mm 1029.20 hPa langsam fallend
05:58 5.7 °C 3.7 °C 61% 56% SSW 196 ° 5 km/h 12 km/h 0.0 mm 1029.00 hPa langsam fallend
06:58 5.8 °C 4.1 °C 62% 54% S 180 ° 2 km/h 6 km/h 0.0 mm 1029.20 hPa langsam fallend
07:58 5.8 °C 5.3 °C 62% 51% S 180 ° 3 km/h 7 km/h 0.0 mm 1028.80 hPa langsam fallend
08:58 6.0 °C 7.4 °C 62% 51% S 190 ° 0 km/h 5 km/h 0.0 mm 1029.30 hPa langsam steigend
09:58 6.9 °C 9.9 °C 63% 41% SSO 153 ° 1 km/h 6 km/h 0.0 mm 1028.90 hPa langsam fallend

 

Verlauf: letzte 24h
WIND   Windrose
(Klicke ins Bild, um den Hintergrund abzuschalten)
WIND   Windverkauf 2.5h
TEMP   Temperatur 2.5h
Druck   Luftdruck 2.5h
Regen   Luftdruck 2.5h